sensor_id;sensor_type;location;lat;lon;timestamp;temperature;humidity
16038;DHT22;8123;50.906;6.172;2023-04-24T00:01:47;10.10;99.90
16038;DHT22;8123;50.906;6.172;2023-04-24T00:04:13;10.10;99.90
16038;DHT22;8123;50.906;6.172;2023-04-24T00:06:39;10.10;99.90
16038;DHT22;8123;50.906;6.172;2023-04-24T00:09:09;10.10;99.90
16038;DHT22;8123;50.906;6.172;2023-04-24T00:11:36;10.20;99.90
16038;DHT22;8123;50.906;6.172;2023-04-24T00:14:02;10.10;99.90
16038;DHT22;8123;50.906;6.172;2023-04-24T00:16:27;10.10;99.90
16038;DHT22;8123;50.906;6.172;2023-04-24T00:18:53;10.10;99.90
16038;DHT22;8123;50.906;6.172;2023-04-24T00:21:19;10.10;99.90
16038;DHT22;8123;50.906;6.172;2023-04-24T00:23:45;10.40;99.90
16038;DHT22;8123;50.906;6.172;2023-04-24T00:26:11;10.10;99.90
16038;DHT22;8123;50.906;6.172;2023-04-24T00:28:37;10.10;99.90
16038;DHT22;8123;50.906;6.172;2023-04-24T00:31:02;10.10;99.90
16038;DHT22;8123;50.906;6.172;2023-04-24T00:33:28;10.00;99.90
16038;DHT22;8123;50.906;6.172;2023-04-24T00:35:54;9.90;99.90
16038;DHT22;8123;50.906;6.172;2023-04-24T00:38:19;9.90;99.90
16038;DHT22;8123;50.906;6.172;2023-04-24T00:40:45;9.80;99.90
16038;DHT22;8123;50.906;6.172;2023-04-24T00:43:11;9.80;99.90
16038;DHT22;8123;50.906;6.172;2023-04-24T00:45:37;9.80;99.90
16038;DHT22;8123;50.906;6.172;2023-04-24T00:48:03;9.70;99.90
16038;DHT22;8123;50.906;6.172;2023-04-24T00:50:29;9.70;99.90
16038;DHT22;8123;50.906;6.172;2023-04-24T00:52:56;10.10;99.90
16038;DHT22;8123;50.906;6.172;2023-04-24T00:55:21;10.00;99.90
16038;DHT22;8123;50.906;6.172;2023-04-24T00:57:47;9.70;99.90
16038;DHT22;8123;50.906;6.172;2023-04-24T01:00:14;9.70;99.90
16038;DHT22;8123;50.906;6.172;2023-04-24T01:02:41;9.80;99.90
16038;DHT22;8123;50.906;6.172;2023-04-24T01:05:12;9.70;99.90
16038;DHT22;8123;50.906;6.172;2023-04-24T01:07:39;9.70;99.90
16038;DHT22;8123;50.906;6.172;2023-04-24T01:10:07;10.00;99.90
16038;DHT22;8123;50.906;6.172;2023-04-24T01:12:33;9.60;99.90
16038;DHT22;8123;50.906;6.172;2023-04-24T01:14:59;9.60;99.90
16038;DHT22;8123;50.906;6.172;2023-04-24T01:17:25;9.70;99.90
16038;DHT22;8123;50.906;6.172;2023-04-24T01:19:51;9.70;99.90
16038;DHT22;8123;50.906;6.172;2023-04-24T01:22:22;9.80;99.90
16038;DHT22;8123;50.906;6.172;2023-04-24T01:24:48;9.60;99.90
16038;DHT22;8123;50.906;6.172;2023-04-24T01:27:14;9.90;99.90
16038;DHT22;8123;50.906;6.172;2023-04-24T01:29:40;9.60;99.90
16038;DHT22;8123;50.906;6.172;2023-04-24T01:32:06;9.60;99.90
16038;DHT22;8123;50.906;6.172;2023-04-24T01:34:32;9.70;99.90
16038;DHT22;8123;50.906;6.172;2023-04-24T01:36:58;9.60;99.90
16038;DHT22;8123;50.906;6.172;2023-04-24T01:39:23;9.60;99.90
16038;DHT22;8123;50.906;6.172;2023-04-24T01:41:51;9.70;99.90
16038;DHT22;8123;50.906;6.172;2023-04-24T01:44:18;9.60;99.90
16038;DHT22;8123;50.906;6.172;2023-04-24T01:46:43;9.70;99.90
16038;DHT22;8123;50.906;6.172;2023-04-24T01:49:10;9.80;99.90
16038;DHT22;8123;50.906;6.172;2023-04-24T01:51:36;9.60;99.90
16038;DHT22;8123;50.906;6.172;2023-04-24T01:54:01;9.60;99.90
16038;DHT22;8123;50.906;6.172;2023-04-24T01:56:29;9.70;99.90
16038;DHT22;8123;50.906;6.172;2023-04-24T01:58:56;9.70;99.90
16038;DHT22;8123;50.906;6.172;2023-04-24T02:01:24;10.00;99.90
16038;DHT22;8123;50.906;6.172;2023-04-24T02:03:50;9.70;99.90
16038;DHT22;8123;50.906;6.172;2023-04-24T02:06:15;9.40;99.90
16038;DHT22;8123;50.906;6.172;2023-04-24T02:08:41;9.70;99.90
16038;DHT22;8123;50.906;6.172;2023-04-24T02:11:09;9.70;99.90
16038;DHT22;8123;50.906;6.172;2023-04-24T02:13:35;9.80;99.90
16038;DHT22;8123;50.906;6.172;2023-04-24T02:16:01;10.00;99.90
16038;DHT22;8123;50.906;6.172;2023-04-24T02:18:26;9.70;99.90
16038;DHT22;8123;50.906;6.172;2023-04-24T02:20:52;9.70;99.90
16038;DHT22;8123;50.906;6.172;2023-04-24T02:23:18;10.00;99.90
16038;DHT22;8123;50.906;6.172;2023-04-24T02:25:43;9.60;99.90
16038;DHT22;8123;50.906;6.172;2023-04-24T02:28:09;9.90;99.90
16038;DHT22;8123;50.906;6.172;2023-04-24T02:30:35;10.10;99.90
16038;DHT22;8123;50.906;6.172;2023-04-24T02:33:00;9.90;99.90
16038;DHT22;8123;50.906;6.172;2023-04-24T02:35:26;9.70;99.90
16038;DHT22;8123;50.906;6.172;2023-04-24T02:37:51;9.70;99.90
16038;DHT22;8123;50.906;6.172;2023-04-24T02:40:17;9.80;99.90
16038;DHT22;8123;50.906;6.172;2023-04-24T02:42:43;9.60;99.90
16038;DHT22;8123;50.906;6.172;2023-04-24T02:45:09;9.60;99.90
16038;DHT22;8123;50.906;6.172;2023-04-24T02:47:34;9.60;99.90
16038;DHT22;8123;50.906;6.172;2023-04-24T02:50:01;9.60;99.90
16038;DHT22;8123;50.906;6.172;2023-04-24T02:52:26;9.80;99.90
16038;DHT22;8123;50.906;6.172;2023-04-24T02:54:52;9.60;99.90
16038;DHT22;8123;50.906;6.172;2023-04-24T02:57:19;9.70;99.90
16038;DHT22;8123;50.906;6.172;2023-04-24T02:59:44;9.70;99.90
16038;DHT22;8123;50.906;6.172;2023-04-24T03:02:10;9.60;99.90
16038;DHT22;8123;50.906;6.172;2023-04-24T03:04:35;9.80;99.90
16038;DHT22;8123;50.906;6.172;2023-04-24T03:07:01;9.60;99.90
16038;DHT22;8123;50.906;6.172;2023-04-24T03:09:27;9.70;99.90
16038;DHT22;8123;50.906;6.172;2023-04-24T03:11:52;9.60;99.90
16038;DHT22;8123;50.906;6.172;2023-04-24T03:14:18;9.50;99.90
16038;DHT22;8123;50.906;6.172;2023-04-24T03:16:44;9.50;99.90
16038;DHT22;8123;50.906;6.172;2023-04-24T03:19:09;9.60;99.90
16038;DHT22;8123;50.906;6.172;2023-04-24T03:21:35;9.50;99.90
16038;DHT22;8123;50.906;6.172;2023-04-24T03:24:06;9.30;99.90
16038;DHT22;8123;50.906;6.172;2023-04-24T03:26:32;9.30;99.90
16038;DHT22;8123;50.906;6.172;2023-04-24T03:28:57;9.30;99.90
16038;DHT22;8123;50.906;6.172;2023-04-24T03:31:23;9.20;99.90
16038;DHT22;8123;50.906;6.172;2023-04-24T03:33:49;9.20;99.90
16038;DHT22;8123;50.906;6.172;2023-04-24T03:36:14;9.30;99.90
16038;DHT22;8123;50.906;6.172;2023-04-24T03:38:40;9.60;99.90
16038;DHT22;8123;50.906;6.172;2023-04-24T03:41:06;9.40;99.90
16038;DHT22;8123;50.906;6.172;2023-04-24T03:43:31;9.20;99.90
16038;DHT22;8123;50.906;6.172;2023-04-24T03:45:58;9.30;99.90
16038;DHT22;8123;50.906;6.172;2023-04-24T03:48:24;9.30;99.90
16038;DHT22;8123;50.906;6.172;2023-04-24T03:50:50;9.20;99.90
16038;DHT22;8123;50.906;6.172;2023-04-24T03:53:15;9.50;99.90
16038;DHT22;8123;50.906;6.172;2023-04-24T03:55:41;9.10;99.90
16038;DHT22;8123;50.906;6.172;2023-04-24T03:58:07;9.40;99.90
16038;DHT22;8123;50.906;6.172;2023-04-24T04:00:32;9.10;99.90
16038;DHT22;8123;50.906;6.172;2023-04-24T04:02:59;9.00;99.90
16038;DHT22;8123;50.906;6.172;2023-04-24T04:05:25;9.00;99.90
16038;DHT22;8123;50.906;6.172;2023-04-24T04:07:51;9.40;99.90
16038;DHT22;8123;50.906;6.172;2023-04-24T04:10:16;9.00;99.90
16038;DHT22;8123;50.906;6.172;2023-04-24T04:12:42;9.00;99.90
16038;DHT22;8123;50.906;6.172;2023-04-24T04:15:08;9.30;99.90
16038;DHT22;8123;50.906;6.172;2023-04-24T04:17:34;9.00;99.90
16038;DHT22;8123;50.906;6.172;2023-04-24T04:19:59;9.30;99.90
16038;DHT22;8123;50.906;6.172;2023-04-24T04:22:26;9.20;99.90
16038;DHT22;8123;50.906;6.172;2023-04-24T04:24:52;9.30;99.90
16038;DHT22;8123;50.906;6.172;2023-04-24T04:27:17;9.10;99.90
16038;DHT22;8123;50.906;6.172;2023-04-24T04:29:44;9.00;99.90
16038;DHT22;8123;50.906;6.172;2023-04-24T04:32:10;9.20;99.90
16038;DHT22;8123;50.906;6.172;2023-04-24T04:34:36;9.40;99.90
16038;DHT22;8123;50.906;6.172;2023-04-24T04:37:03;9.00;99.90
16038;DHT22;8123;50.906;6.172;2023-04-24T04:39:29;9.20;99.90
16038;DHT22;8123;50.906;6.172;2023-04-24T04:41:55;9.20;99.90
16038;DHT22;8123;50.906;6.172;2023-04-24T04:44:20;9.10;99.90
16038;DHT22;8123;50.906;6.172;2023-04-24T04:46:46;9.30;99.90
16038;DHT22;8123;50.906;6.172;2023-04-24T04:49:12;8.90;99.90
16038;DHT22;8123;50.906;6.172;2023-04-24T04:51:38;8.90;99.90
16038;DHT22;8123;50.906;6.172;2023-04-24T04:54:04;9.30;99.90
16038;DHT22;8123;50.906;6.172;2023-04-24T04:56:30;9.00;99.90
16038;DHT22;8123;50.906;6.172;2023-04-24T04:58:55;9.00;99.90
16038;DHT22;8123;50.906;6.172;2023-04-24T05:01:21;9.10;99.90
16038;DHT22;8123;50.906;6.172;2023-04-24T05:03:48;9.00;99.90
16038;DHT22;8123;50.906;6.172;2023-04-24T05:06:14;9.30;99.90
16038;DHT22;8123;50.906;6.172;2023-04-24T05:08:40;9.30;99.90
16038;DHT22;8123;50.906;6.172;2023-04-24T05:11:06;9.10;99.90
16038;DHT22;8123;50.906;6.172;2023-04-24T05:13:31;8.90;99.90
16038;DHT22;8123;50.906;6.172;2023-04-24T05:15:57;9.40;99.90
16038;DHT22;8123;50.906;6.172;2023-04-24T05:18:23;8.90;99.90
16038;DHT22;8123;50.906;6.172;2023-04-24T05:20:49;8.80;99.90
16038;DHT22;8123;50.906;6.172;2023-04-24T05:23:14;8.80;99.90
16038;DHT22;8123;50.906;6.172;2023-04-24T05:25:40;8.90;99.90
16038;DHT22;8123;50.906;6.172;2023-04-24T05:28:06;8.90;99.90
16038;DHT22;8123;50.906;6.172;2023-04-24T05:30:32;8.90;99.90
16038;DHT22;8123;50.906;6.172;2023-04-24T05:32:58;9.60;99.90
16038;DHT22;8123;50.906;6.172;2023-04-24T05:35:23;8.80;99.90
16038;DHT22;8123;50.906;6.172;2023-04-24T05:37:49;8.70;99.90
16038;DHT22;8123;50.906;6.172;2023-04-24T05:40:15;8.80;99.90
16038;DHT22;8123;50.906;6.172;2023-04-24T05:42:40;8.90;99.90
16038;DHT22;8123;50.906;6.172;2023-04-24T05:45:06;8.70;99.90
16038;DHT22;8123;50.906;6.172;2023-04-24T05:47:32;8.70;99.90
16038;DHT22;8123;50.906;6.172;2023-04-24T05:49:58;8.80;99.90
16038;DHT22;8123;50.906;6.172;2023-04-24T05:52:23;8.90;99.90
16038;DHT22;8123;50.906;6.172;2023-04-24T05:54:49;8.60;99.90
16038;DHT22;8123;50.906;6.172;2023-04-24T05:57:15;8.90;99.90
16038;DHT22;8123;50.906;6.172;2023-04-24T05:59:40;8.60;99.90
16038;DHT22;8123;50.906;6.172;2023-04-24T06:02:07;8.60;99.90
16038;DHT22;8123;50.906;6.172;2023-04-24T06:04:33;8.60;99.90
16038;DHT22;8123;50.906;6.172;2023-04-24T06:06:59;8.60;99.90
16038;DHT22;8123;50.906;6.172;2023-04-24T06:09:25;8.60;99.90
16038;DHT22;8123;50.906;6.172;2023-04-24T06:11:51;8.70;99.90
16038;DHT22;8123;50.906;6.172;2023-04-24T06:14:20;9.00;99.90
16038;DHT22;8123;50.906;6.172;2023-04-24T06:16:45;8.60;99.90
16038;DHT22;8123;50.906;6.172;2023-04-24T06:19:11;8.60;99.90
16038;DHT22;8123;50.906;6.172;2023-04-24T06:21:37;8.90;99.90
16038;DHT22;8123;50.906;6.172;2023-04-24T06:24:03;8.90;99.90
16038;DHT22;8123;50.906;6.172;2023-04-24T06:26:29;8.60;99.90
16038;DHT22;8123;50.906;6.172;2023-04-24T06:28:55;8.60;99.90
16038;DHT22;8123;50.906;6.172;2023-04-24T06:31:21;8.70;99.90
16038;DHT22;8123;50.906;6.172;2023-04-24T06:33:48;8.60;99.90
16038;DHT22;8123;50.906;6.172;2023-04-24T06:36:13;8.60;99.90
16038;DHT22;8123;50.906;6.172;2023-04-24T06:38:39;8.80;99.90
16038;DHT22;8123;50.906;6.172;2023-04-24T06:41:05;8.50;99.90
16038;DHT22;8123;50.906;6.172;2023-04-24T06:43:34;8.50;99.90
16038;DHT22;8123;50.906;6.172;2023-04-24T06:46:00;8.70;99.90
16038;DHT22;8123;50.906;6.172;2023-04-24T06:48:26;8.90;99.90
16038;DHT22;8123;50.906;6.172;2023-04-24T06:50:52;8.30;99.90
16038;DHT22;8123;50.906;6.172;2023-04-24T06:53:18;8.30;99.90
16038;DHT22;8123;50.906;6.172;2023-04-24T06:55:43;8.30;99.90
16038;DHT22;8123;50.906;6.172;2023-04-24T06:58:12;8.20;99.90
16038;DHT22;8123;50.906;6.172;2023-04-24T07:00:38;8.20;99.90
16038;DHT22;8123;50.906;6.172;2023-04-24T07:03:04;8.10;99.90
16038;DHT22;8123;50.906;6.172;2023-04-24T07:05:31;8.10;99.90
16038;DHT22;8123;50.906;6.172;2023-04-24T07:07:59;8.10;99.90
16038;DHT22;8123;50.906;6.172;2023-04-24T07:10:25;8.30;99.90
16038;DHT22;8123;50.906;6.172;2023-04-24T07:12:54;7.90;99.90
16038;DHT22;8123;50.906;6.172;2023-04-24T07:15:21;7.90;99.90
16038;DHT22;8123;50.906;6.172;2023-04-24T07:17:47;7.90;99.90
16038;DHT22;8123;50.906;6.172;2023-04-24T07:20:13;8.10;99.90
16038;DHT22;8123;50.906;6.172;2023-04-24T07:22:39;8.20;99.90
16038;DHT22;8123;50.906;6.172;2023-04-24T07:25:06;8.30;99.90
16038;DHT22;8123;50.906;6.172;2023-04-24T07:27:33;7.90;99.90
16038;DHT22;8123;50.906;6.172;2023-04-24T07:29:59;7.80;99.90
16038;DHT22;8123;50.906;6.172;2023-04-24T07:32:25;7.80;99.90
16038;DHT22;8123;50.906;6.172;2023-04-24T07:34:50;7.80;99.90
16038;DHT22;8123;50.906;6.172;2023-04-24T07:37:16;8.10;99.90
16038;DHT22;8123;50.906;6.172;2023-04-24T07:39:42;8.10;99.90
16038;DHT22;8123;50.906;6.172;2023-04-24T07:42:07;7.70;99.90
16038;DHT22;8123;50.906;6.172;2023-04-24T07:44:33;7.70;99.90
16038;DHT22;8123;50.906;6.172;2023-04-24T07:46:59;7.70;99.90
16038;DHT22;8123;50.906;6.172;2023-04-24T07:49:25;7.60;99.90
16038;DHT22;8123;50.906;6.172;2023-04-24T07:51:51;7.60;99.90
16038;DHT22;8123;50.906;6.172;2023-04-24T07:54:16;7.60;99.90
16038;DHT22;8123;50.906;6.172;2023-04-24T07:56:43;7.90;99.90
16038;DHT22;8123;50.906;6.172;2023-04-24T07:59:09;7.60;99.90
16038;DHT22;8123;50.906;6.172;2023-04-24T08:01:35;7.60;99.90
16038;DHT22;8123;50.906;6.172;2023-04-24T08:04:01;7.80;99.90
16038;DHT22;8123;50.906;6.172;2023-04-24T08:06:27;7.90;99.90
16038;DHT22;8123;50.906;6.172;2023-04-24T08:08:59;7.70;99.90
16038;DHT22;8123;50.906;6.172;2023-04-24T08:11:25;7.90;99.90
16038;DHT22;8123;50.906;6.172;2023-04-24T08:13:51;7.80;99.90
16038;DHT22;8123;50.906;6.172;2023-04-24T08:16:17;7.90;99.90
16038;DHT22;8123;50.906;6.172;2023-04-24T08:18:42;7.60;99.90
16038;DHT22;8123;50.906;6.172;2023-04-24T08:21:08;7.90;99.90
16038;DHT22;8123;50.906;6.172;2023-04-24T08:23:34;8.10;99.90
16038;DHT22;8123;50.906;6.172;2023-04-24T08:25:59;7.70;99.90
16038;DHT22;8123;50.906;6.172;2023-04-24T08:28:25;7.80;99.90
16038;DHT22;8123;50.906;6.172;2023-04-24T08:30:51;8.10;99.90
16038;DHT22;8123;50.906;6.172;2023-04-24T08:33:23;7.80;99.90
16038;DHT22;8123;50.906;6.172;2023-04-24T08:35:49;8.20;99.90
16038;DHT22;8123;50.906;6.172;2023-04-24T08:38:16;7.80;99.90
16038;DHT22;8123;50.906;6.172;2023-04-24T08:40:42;7.80;99.90
16038;DHT22;8123;50.906;6.172;2023-04-24T08:43:08;7.90;99.90
16038;DHT22;8123;50.906;6.172;2023-04-24T08:45:34;8.10;99.90
16038;DHT22;8123;50.906;6.172;2023-04-24T08:48:00;7.90;99.90
16038;DHT22;8123;50.906;6.172;2023-04-24T08:50:27;7.90;99.90
16038;DHT22;8123;50.906;6.172;2023-04-24T08:52:54;7.90;99.90
16038;DHT22;8123;50.906;6.172;2023-04-24T08:55:20;7.90;99.90
16038;DHT22;8123;50.906;6.172;2023-04-24T08:57:51;7.90;99.90
16038;DHT22;8123;50.906;6.172;2023-04-24T09:00:19;8.30;99.90
16038;DHT22;8123;50.906;6.172;2023-04-24T09:02:47;7.90;99.90
16038;DHT22;8123;50.906;6.172;2023-04-24T09:05:14;8.30;99.90
16038;DHT22;8123;50.906;6.172;2023-04-24T09:07:45;8.30;99.90
16038;DHT22;8123;50.906;6.172;2023-04-24T09:10:15;8.10;99.90
16038;DHT22;8123;50.906;6.172;2023-04-24T09:12:41;8.50;99.90
16038;DHT22;8123;50.906;6.172;2023-04-24T09:15:08;8.40;99.90
16038;DHT22;8123;50.906;6.172;2023-04-24T09:17:34;8.20;99.90
16038;DHT22;8123;50.906;6.172;2023-04-24T09:20:02;8.30;99.90
16038;DHT22;8123;50.906;6.172;2023-04-24T09:22:31;8.30;99.90
16038;DHT22;8123;50.906;6.172;2023-04-24T09:25:07;8.20;99.90
16038;DHT22;8123;50.906;6.172;2023-04-24T09:27:34;8.30;99.90
16038;DHT22;8123;50.906;6.172;2023-04-24T09:30:01;8.40;99.90
16038;DHT22;8123;50.906;6.172;2023-04-24T09:32:27;8.40;99.90
16038;DHT22;8123;50.906;6.172;2023-04-24T09:35:11;8.40;99.90
16038;DHT22;8123;50.906;6.172;2023-04-24T09:37:42;8.50;99.90
16038;DHT22;8123;50.906;6.172;2023-04-24T09:40:18;8.60;99.90
16038;DHT22;8123;50.906;6.172;2023-04-24T09:42:56;8.60;99.90
16038;DHT22;8123;50.906;6.172;2023-04-24T09:45:37;8.70;99.90
16038;DHT22;8123;50.906;6.172;2023-04-24T09:48:03;8.80;99.90
16038;DHT22;8123;50.906;6.172;2023-04-24T09:50:31;8.80;99.90
16038;DHT22;8123;50.906;6.172;2023-04-24T09:52:59;9.10;99.90
16038;DHT22;8123;50.906;6.172;2023-04-24T09:55:27;9.20;99.90
16038;DHT22;8123;50.906;6.172;2023-04-24T09:57:57;9.30;99.90
16038;DHT22;8123;50.906;6.172;2023-04-24T10:00:25;9.30;99.90
16038;DHT22;8123;50.906;6.172;2023-04-24T10:02:55;9.40;99.90
16038;DHT22;8123;50.906;6.172;2023-04-24T10:05:27;9.80;99.90
16038;DHT22;8123;50.906;6.172;2023-04-24T10:07:59;9.90;99.90
16038;DHT22;8123;50.906;6.172;2023-04-24T10:10:25;9.70;99.90
16038;DHT22;8123;50.906;6.172;2023-04-24T10:12:52;10.10;99.90
16038;DHT22;8123;50.906;6.172;2023-04-24T10:15:18;10.10;99.90
16038;DHT22;8123;50.906;6.172;2023-04-24T10:17:50;10.10;99.90
16038;DHT22;8123;50.906;6.172;2023-04-24T10:20:23;9.70;99.90
16038;DHT22;8123;50.906;6.172;2023-04-24T10:22:53;9.60;99.90
16038;DHT22;8123;50.906;6.172;2023-04-24T10:25:34;9.50;99.90
16038;DHT22;8123;50.906;6.172;2023-04-24T10:28:01;9.30;99.90
16038;DHT22;8123;50.906;6.172;2023-04-24T10:30:29;9.30;99.90
16038;DHT22;8123;50.906;6.172;2023-04-24T10:32:55;9.10;99.90
16038;DHT22;8123;50.906;6.172;2023-04-24T10:35:23;9.40;99.90
16038;DHT22;8123;50.906;6.172;2023-04-24T10:37:59;9.20;99.90
16038;DHT22;8123;50.906;6.172;2023-04-24T10:40:31;9.60;99.90
16038;DHT22;8123;50.906;6.172;2023-04-24T10:42:58;9.30;99.90
16038;DHT22;8123;50.906;6.172;2023-04-24T10:45:24;9.30;99.90
16038;DHT22;8123;50.906;6.172;2023-04-24T10:48:11;9.30;99.90
16038;DHT22;8123;50.906;6.172;2023-04-24T10:50:51;9.50;99.90
16038;DHT22;8123;50.906;6.172;2023-04-24T10:53:22;9.30;99.90
16038;DHT22;8123;50.906;6.172;2023-04-24T10:56:07;9.70;99.90
16038;DHT22;8123;50.906;6.172;2023-04-24T10:58:43;9.40;99.90
16038;DHT22;8123;50.906;6.172;2023-04-24T11:01:28;9.50;99.90
16038;DHT22;8123;50.906;6.172;2023-04-24T11:04:02;9.70;99.90
16038;DHT22;8123;50.906;6.172;2023-04-24T11:06:37;10.00;99.90
16038;DHT22;8123;50.906;6.172;2023-04-24T11:09:10;10.20;99.90
16038;DHT22;8123;50.906;6.172;2023-04-24T11:11:43;10.50;99.90
16038;DHT22;8123;50.906;6.172;2023-04-24T11:14:10;10.60;99.90
16038;DHT22;8123;50.906;6.172;2023-04-24T11:16:45;10.70;99.90
16038;DHT22;8123;50.906;6.172;2023-04-24T11:21:44;10.70;99.90
16038;DHT22;8123;50.906;6.172;2023-04-24T11:27:06;10.70;99.90
16038;DHT22;8123;50.906;6.172;2023-04-24T11:29:43;10.60;99.90
16038;DHT22;8123;50.906;6.172;2023-04-24T11:32:26;10.40;99.90
16038;DHT22;8123;50.906;6.172;2023-04-24T11:34:55;10.30;99.90
16038;DHT22;8123;50.906;6.172;2023-04-24T11:37:23;10.30;99.90
16038;DHT22;8123;50.906;6.172;2023-04-24T11:39:59;10.40;99.90
16038;DHT22;8123;50.906;6.172;2023-04-24T11:42:25;10.50;99.90
16038;DHT22;8123;50.906;6.172;2023-04-24T11:44:55;10.70;99.90
16038;DHT22;8123;50.906;6.172;2023-04-24T11:47:29;11.10;99.90
16038;DHT22;8123;50.906;6.172;2023-04-24T11:49:55;10.90;99.90
16038;DHT22;8123;50.906;6.172;2023-04-24T11:52:21;11.00;99.90
16038;DHT22;8123;50.906;6.172;2023-04-24T11:54:50;11.00;99.90
16038;DHT22;8123;50.906;6.172;2023-04-24T11:57:18;11.10;99.90
16038;DHT22;8123;50.906;6.172;2023-04-24T11:59:44;11.30;99.90
16038;DHT22;8123;50.906;6.172;2023-04-24T12:02:28;11.40;99.90
16038;DHT22;8123;50.906;6.172;2023-04-24T12:04:54;11.30;99.90
16038;DHT22;8123;50.906;6.172;2023-04-24T12:07:20;11.40;99.90
16038;DHT22;8123;50.906;6.172;2023-04-24T12:09:48;11.40;99.90
16038;DHT22;8123;50.906;6.172;2023-04-24T12:12:16;11.30;99.90
16038;DHT22;8123;50.906;6.172;2023-04-24T12:14:54;11.10;99.90
16038;DHT22;8123;50.906;6.172;2023-04-24T12:17:28;11.00;99.90
16038;DHT22;8123;50.906;6.172;2023-04-24T12:19:58;11.10;99.90
16038;DHT22;8123;50.906;6.172;2023-04-24T12:22:24;11.10;99.90
16038;DHT22;8123;50.906;6.172;2023-04-24T12:25:03;11.20;99.90
16038;DHT22;8123;50.906;6.172;2023-04-24T12:27:33;11.30;99.90
16038;DHT22;8123;50.906;6.172;2023-04-24T12:30:00;11.20;99.90
16038;DHT22;8123;50.906;6.172;2023-04-24T12:32:26;11.10;99.90
16038;DHT22;8123;50.906;6.172;2023-04-24T12:34:53;11.10;99.90
16038;DHT22;8123;50.906;6.172;2023-04-24T12:37:21;11.10;99.90
16038;DHT22;8123;50.906;6.172;2023-04-24T12:40:10;11.30;99.90
16038;DHT22;8123;50.906;6.172;2023-04-24T12:42:45;11.30;99.90
16038;DHT22;8123;50.906;6.172;2023-04-24T12:45:12;11.50;99.90
16038;DHT22;8123;50.906;6.172;2023-04-24T12:47:38;11.40;99.90
16038;DHT22;8123;50.906;6.172;2023-04-24T12:50:07;11.60;99.90
16038;DHT22;8123;50.906;6.172;2023-04-24T12:52:33;11.80;99.90
16038;DHT22;8123;50.906;6.172;2023-04-24T12:55:00;12.00;99.90
16038;DHT22;8123;50.906;6.172;2023-04-24T12:57:28;12.00;99.90
16038;DHT22;8123;50.906;6.172;2023-04-24T12:59:58;11.90;99.90
16038;DHT22;8123;50.906;6.172;2023-04-24T13:02:28;11.70;99.90
16038;DHT22;8123;50.906;6.172;2023-04-24T13:04:55;11.60;99.90
16038;DHT22;8123;50.906;6.172;2023-04-24T13:07:21;11.50;99.90
16038;DHT22;8123;50.906;6.172;2023-04-24T13:09:48;11.40;99.90
16038;DHT22;8123;50.906;6.172;2023-04-24T13:12:14;11.50;99.90
16038;DHT22;8123;50.906;6.172;2023-04-24T13:14:40;11.50;99.90
16038;DHT22;8123;50.906;6.172;2023-04-24T13:17:06;11.50;99.90
16038;DHT22;8123;50.906;6.172;2023-04-24T13:19:37;11.50;99.90
16038;DHT22;8123;50.906;6.172;2023-04-24T13:22:04;11.50;99.90
16038;DHT22;8123;50.906;6.172;2023-04-24T13:24:30;11.70;99.90
16038;DHT22;8123;50.906;6.172;2023-04-24T13:26:56;11.80;99.90
16038;DHT22;8123;50.906;6.172;2023-04-24T13:29:23;11.80;99.90
16038;DHT22;8123;50.906;6.172;2023-04-24T13:31:51;11.90;99.90
16038;DHT22;8123;50.906;6.172;2023-04-24T13:34:17;11.90;99.90
16038;DHT22;8123;50.906;6.172;2023-04-24T13:36:43;11.90;99.90
16038;DHT22;8123;50.906;6.172;2023-04-24T13:39:09;11.90;99.90
16038;DHT22;8123;50.906;6.172;2023-04-24T13:41:36;11.80;99.90
16038;DHT22;8123;50.906;6.172;2023-04-24T13:44:02;11.90;99.90
16038;DHT22;8123;50.906;6.172;2023-04-24T13:46:28;11.90;99.90
16038;DHT22;8123;50.906;6.172;2023-04-24T13:48:54;11.90;99.90
16038;DHT22;8123;50.906;6.172;2023-04-24T13:51:19;11.90;99.90
16038;DHT22;8123;50.906;6.172;2023-04-24T13:53:45;11.90;99.90
16038;DHT22;8123;50.906;6.172;2023-04-24T13:56:11;11.90;99.90
16038;DHT22;8123;50.906;6.172;2023-04-24T13:58:38;11.90;99.90
16038;DHT22;8123;50.906;6.172;2023-04-24T14:01:04;11.90;99.90
16038;DHT22;8123;50.906;6.172;2023-04-24T14:03:29;11.90;99.90
16038;DHT22;8123;50.906;6.172;2023-04-24T14:05:55;11.90;99.90
16038;DHT22;8123;50.906;6.172;2023-04-24T14:08:21;12.00;99.90
16038;DHT22;8123;50.906;6.172;2023-04-24T14:10:46;11.90;99.90
16038;DHT22;8123;50.906;6.172;2023-04-24T14:13:12;12.00;99.90
16038;DHT22;8123;50.906;6.172;2023-04-24T14:15:38;12.00;99.90
16038;DHT22;8123;50.906;6.172;2023-04-24T14:18:04;12.10;99.90
16038;DHT22;8123;50.906;6.172;2023-04-24T14:20:31;12.20;99.90
16038;DHT22;8123;50.906;6.172;2023-04-24T14:22:57;12.40;99.90
16038;DHT22;8123;50.906;6.172;2023-04-24T14:25:25;12.50;99.90
16038;DHT22;8123;50.906;6.172;2023-04-24T14:27:51;12.50;99.90
16038;DHT22;8123;50.906;6.172;2023-04-24T14:30:18;12.40;99.90
16038;DHT22;8123;50.906;6.172;2023-04-24T14:32:44;12.30;99.90
16038;DHT22;8123;50.906;6.172;2023-04-24T14:35:10;12.30;99.90
16038;DHT22;8123;50.906;6.172;2023-04-24T14:37:36;12.40;99.90
16038;DHT22;8123;50.906;6.172;2023-04-24T14:40:03;12.40;99.90
16038;DHT22;8123;50.906;6.172;2023-04-24T14:42:30;12.50;99.90
16038;DHT22;8123;50.906;6.172;2023-04-24T14:44:56;12.70;98.70
16038;DHT22;8123;50.906;6.172;2023-04-24T14:47:21;12.70;95.60
16038;DHT22;8123;50.906;6.172;2023-04-24T14:49:48;12.60;93.90
16038;DHT22;8123;50.906;6.172;2023-04-24T14:52:13;12.50;93.60
16038;DHT22;8123;50.906;6.172;2023-04-24T14:54:39;12.40;94.00
16038;DHT22;8123;50.906;6.172;2023-04-24T14:57:05;12.40;96.20
16038;DHT22;8123;50.906;6.172;2023-04-24T14:59:31;12.40;93.80
16038;DHT22;8123;50.906;6.172;2023-04-24T15:01:57;12.50;93.80
16038;DHT22;8123;50.906;6.172;2023-04-24T15:04:27;12.40;94.30
16038;DHT22;8123;50.906;6.172;2023-04-24T15:06:53;12.60;95.70
16038;DHT22;8123;50.906;6.172;2023-04-24T15:09:23;12.60;95.70
16038;DHT22;8123;50.906;6.172;2023-04-24T15:11:50;12.60;94.20
16038;DHT22;8123;50.906;6.172;2023-04-24T15:14:17;12.60;93.10
16038;DHT22;8123;50.906;6.172;2023-04-24T15:16:42;12.40;94.90
16038;DHT22;8123;50.906;6.172;2023-04-24T15:19:08;12.40;97.00
16038;DHT22;8123;50.906;6.172;2023-04-24T15:21:36;12.30;98.80
16038;DHT22;8123;50.906;6.172;2023-04-24T15:24:01;12.40;97.70
16038;DHT22;8123;50.906;6.172;2023-04-24T15:26:27;12.40;99.50
16038;DHT22;8123;50.906;6.172;2023-04-24T15:28:53;12.30;98.60
16038;DHT22;8123;50.906;6.172;2023-04-24T15:31:19;12.30;99.90
16038;DHT22;8123;50.906;6.172;2023-04-24T15:33:44;12.10;99.90
16038;DHT22;8123;50.906;6.172;2023-04-24T15:36:10;12.10;99.90
16038;DHT22;8123;50.906;6.172;2023-04-24T15:38:37;12.10;99.90
16038;DHT22;8123;50.906;6.172;2023-04-24T15:41:02;12.10;99.90
16038;DHT22;8123;50.906;6.172;2023-04-24T15:43:28;12.20;99.70
16038;DHT22;8123;50.906;6.172;2023-04-24T15:46:00;12.10;99.80
16038;DHT22;8123;50.906;6.172;2023-04-24T15:48:26;12.20;97.80
16038;DHT22;8123;50.906;6.172;2023-04-24T15:50:52;12.20;98.10
16038;DHT22;8123;50.906;6.172;2023-04-24T15:53:18;12.30;97.20
16038;DHT22;8123;50.906;6.172;2023-04-24T15:55:55;12.30;97.60
16038;DHT22;8123;50.906;6.172;2023-04-24T15:58:22;12.30;98.00
16038;DHT22;8123;50.906;6.172;2023-04-24T16:00:48;12.30;98.00